Terminal Aerodrome Forecast
Issued by NWS

Home | Current Version | Previous Version | Text Only | Print | Product List | Glossary On
Versions: 1 2 3 4 5 6 7 8 9 10 11 12 13
000
FTUS41 KAKQ 301758
TAFPHF
TAF
KPHF 301758Z 3018/3118 20007KT P6SM BKN200
     FM310200 20004KT P6SM OVC120
     FM311000 24007KT P6SM OVC050=

USA.gov is the U.S. government's official web portal to all federal, state and local government web resources and services.